createdAt,value
2022-11-24T00:01:15.588Z,63.43
2022-11-24T00:03:44.673Z,56.13
2022-11-24T00:06:13.359Z,57.40
2022-11-24T00:08:42.061Z,57.10
2022-11-24T00:11:11.425Z,56.00
2022-11-24T00:13:41.091Z,57.60
2022-11-24T00:16:15.219Z,59.10
2022-11-24T00:18:44.498Z,57.13
2022-11-24T00:21:11.424Z,57.47
2022-11-24T00:23:38.649Z,58.07
2022-11-24T00:26:12.526Z,56.77
2022-11-24T00:28:40.389Z,56.80
2022-11-24T00:31:17.970Z,56.67
2022-11-24T00:33:46.237Z,55.60
2022-11-24T00:36:13.331Z,58.63
2022-11-24T00:38:40.167Z,57.80
2022-11-24T00:41:07.098Z,53.67
2022-11-24T00:43:34.251Z,65.73
2022-11-24T00:46:01.036Z,60.07
2022-11-24T00:48:27.811Z,54.67
2022-11-24T00:51:03.037Z,67.17
2022-11-24T00:53:30.159Z,63.97
2022-11-24T00:55:57.010Z,52.80
2022-11-24T00:58:24.432Z,64.37
2022-11-24T01:00:51.958Z,58.47
2022-11-24T01:03:20.574Z,63.60
2022-11-24T01:05:47.111Z,58.27
2022-11-24T01:08:13.752Z,60.63
2022-11-24T01:10:40.376Z,61.87
2022-11-24T01:13:06.933Z,71.03
2022-11-24T01:15:35.952Z,60.33
2022-11-24T01:18:03.324Z,55.43
2022-11-24T01:20:30.219Z,60.13
2022-11-24T01:22:56.746Z,57.87
2022-11-24T01:25:23.297Z,56.80
2022-11-24T01:27:49.872Z,60.97
2022-11-24T01:30:16.681Z,79.63
2022-11-24T01:32:43.255Z,60.33
2022-11-24T01:35:10.055Z,60.80
2022-11-24T01:37:36.605Z,61.83
2022-11-24T01:40:03.412Z,62.57
2022-11-24T01:42:47.676Z,61.00
2022-11-24T01:45:32.693Z,57.17
2022-11-24T01:48:01.366Z,61.80
2022-11-24T01:50:28.162Z,56.97
2022-11-24T01:52:56.490Z,58.60
2022-11-24T01:55:29.338Z,58.23
2022-11-24T01:58:03.730Z,60.90
2022-11-24T02:00:30.330Z,65.77
2022-11-24T02:02:58.424Z,66.23
2022-11-24T02:05:43.715Z,61.17
2022-11-24T02:08:30.551Z,67.07
2022-11-24T02:10:57.525Z,54.83
2022-11-24T02:13:25.111Z,61.30
2022-11-24T02:15:53.074Z,52.30
2022-11-24T02:18:19.660Z,53.63
2022-11-24T02:20:46.227Z,54.40
2022-11-24T02:23:28.735Z,57.70
2022-11-24T02:26:34.077Z,52.83
2022-11-24T02:29:00.658Z,52.97
2022-11-24T02:31:27.603Z,53.63
2022-11-24T02:33:54.788Z,55.70
2022-11-24T02:36:21.456Z,52.30
2022-11-24T02:38:47.997Z,51.33
2022-11-24T02:41:19.890Z,56.30
2022-11-24T02:43:51.299Z,49.13
2022-11-24T02:46:17.882Z,50.80
2022-11-24T02:48:44.498Z,54.03
2022-11-24T02:51:11.060Z,57.37
2022-11-24T02:53:37.628Z,55.17
2022-11-24T02:56:04.431Z,53.30
2022-11-24T02:58:31.028Z,51.17
2022-11-24T03:00:57.966Z,51.03
2022-11-24T03:03:25.661Z,50.83
2022-11-24T03:05:52.242Z,51.93
2022-11-24T03:08:19.269Z,49.30
2022-11-24T03:10:45.938Z,53.03
2022-11-24T03:13:12.509Z,47.57
2022-11-24T03:15:39.261Z,54.13
2022-11-24T03:18:06.026Z,54.80
2022-11-24T03:20:32.886Z,48.73
2022-11-24T03:22:59.435Z,50.90
2022-11-24T03:25:26.020Z,50.97
2022-11-24T03:27:52.773Z,55.73
2022-11-24T03:30:19.393Z,51.47
2022-11-24T03:32:46.008Z,50.27
2022-11-24T03:35:12.560Z,46.67
2022-11-24T03:37:39.107Z,50.67
2022-11-24T03:40:06.213Z,51.63
2022-11-24T03:42:32.814Z,54.87
2022-11-24T03:45:04.197Z,49.73
2022-11-24T03:47:43.474Z,51.53
2022-11-24T03:50:10.015Z,52.37
2022-11-24T03:52:36.574Z,51.83
2022-11-24T03:55:03.145Z,63.57
2022-11-24T03:57:29.726Z,51.57
2022-11-24T03:59:56.278Z,53.33
2022-11-24T04:02:22.857Z,52.70
2022-11-24T04:04:52.038Z,47.57
2022-11-24T04:07:18.795Z,47.27
2022-11-24T04:09:45.604Z,46.50
2022-11-24T04:12:30.760Z,42.03
2022-11-24T04:14:57.296Z,44.40
2022-11-24T04:17:23.892Z,51.37
2022-11-24T04:19:50.448Z,50.37
2022-11-24T04:22:17.206Z,46.13
2022-11-24T04:24:43.765Z,45.70
2022-11-24T04:27:10.515Z,45.67
2022-11-24T04:29:37.172Z,52.40
2022-11-24T04:32:03.788Z,48.33
2022-11-24T04:34:30.305Z,55.40
2022-11-24T04:36:56.906Z,49.60
2022-11-24T04:39:28.708Z,43.93
2022-11-24T04:41:55.562Z,46.73
2022-11-24T04:44:22.260Z,49.20
2022-11-24T04:46:48.908Z,45.10
2022-11-24T04:49:15.498Z,45.30
2022-11-24T04:51:42.309Z,46.80
2022-11-24T04:54:14.379Z,46.33
2022-11-24T04:56:42.125Z,52.83
2022-11-24T04:59:13.530Z,43.47
2022-11-24T05:01:40.569Z,50.30
2022-11-24T05:04:07.184Z,41.87
2022-11-24T05:06:33.715Z,41.53
2022-11-24T05:09:00.251Z,51.93
2022-11-24T05:11:26.782Z,48.17
2022-11-24T05:13:53.607Z,43.10
2022-11-24T05:16:20.243Z,42.47
2022-11-24T05:18:46.881Z,46.40
2022-11-24T05:21:13.482Z,45.73
2022-11-24T05:23:40.125Z,44.97
2022-11-24T05:26:06.921Z,41.07
2022-11-24T05:28:33.528Z,39.03
2022-11-24T05:31:04.113Z,41.73
2022-11-24T05:33:33.189Z,44.40
2022-11-24T05:36:04.469Z,41.20
2022-11-24T05:38:31.332Z,49.70
2022-11-24T05:41:02.135Z,39.00
2022-11-24T05:43:28.891Z,46.70
2022-11-24T05:45:58.208Z,37.53
2022-11-24T05:48:24.742Z,39.77
2022-11-24T05:50:58.461Z,43.43
2022-11-24T05:53:26.841Z,50.00
2022-11-24T05:55:53.614Z,42.83
2022-11-24T05:58:20.373Z,44.83
2022-11-24T06:00:47.008Z,41.30
2022-11-24T06:03:13.594Z,39.00
2022-11-24T06:05:40.213Z,43.57
2022-11-24T06:08:06.751Z,40.57
2022-11-24T06:10:33.354Z,46.87
2022-11-24T06:13:03.954Z,46.87
2022-11-24T06:15:30.541Z,42.47
2022-11-24T06:17:57.275Z,39.50
2022-11-24T06:20:28.500Z,40.07
2022-11-24T06:22:58.712Z,39.83
2022-11-24T06:25:25.349Z,37.43
2022-11-24T06:27:51.937Z,43.37
2022-11-24T06:30:18.525Z,45.13
2022-11-24T06:32:49.391Z,41.47
2022-11-24T06:35:16.861Z,40.37
2022-11-24T06:37:43.416Z,48.70
2022-11-24T06:40:10.321Z,41.53
2022-11-24T06:42:37.420Z,41.93
2022-11-24T06:45:08.772Z,47.37
2022-11-24T06:47:36.187Z,38.63
2022-11-24T06:50:03.315Z,38.07
2022-11-24T06:52:29.886Z,40.43
2022-11-24T06:54:57.147Z,41.33
2022-11-24T06:57:23.701Z,41.50
2022-11-24T06:59:50.373Z,39.53
2022-11-24T07:02:16.962Z,48.27
2022-11-24T07:04:43.569Z,44.00
2022-11-24T07:07:10.237Z,40.43
2022-11-24T07:09:36.788Z,41.90
2022-11-24T07:12:03.551Z,38.90
2022-11-24T07:14:30.112Z,45.03
2022-11-24T07:16:56.784Z,40.00
2022-11-24T07:19:25.011Z,39.57
2022-11-24T07:21:51.876Z,38.17
2022-11-24T07:24:18.666Z,39.87
2022-11-24T07:26:45.219Z,35.17
2022-11-24T07:29:11.757Z,37.70
2022-11-24T07:31:38.546Z,37.50
2022-11-24T07:34:05.239Z,34.47
2022-11-24T07:36:31.760Z,36.60
2022-11-24T07:38:58.469Z,37.30
2022-11-24T07:41:25.044Z,34.60
2022-11-24T07:43:52.132Z,46.40
2022-11-24T07:46:19.638Z,46.97
2022-11-24T07:48:46.952Z,45.13
2022-11-24T07:51:13.645Z,38.03
2022-11-24T07:53:40.267Z,40.60
2022-11-24T07:56:07.252Z,42.30
2022-11-24T07:58:36.011Z,42.60
2022-11-24T08:01:13.751Z,39.20
2022-11-24T08:03:40.807Z,36.67
2022-11-24T08:06:24.100Z,72.60
2022-11-24T08:08:52.958Z,89.03
2022-11-24T08:11:21.976Z,79.40
2022-11-24T08:13:48.563Z,55.73
2022-11-24T08:16:17.534Z,43.80
2022-11-24T08:18:48.599Z,36.93
2022-11-24T08:21:15.209Z,38.47
2022-11-24T08:23:42.206Z,34.87
2022-11-24T08:26:15.839Z,33.67
2022-11-24T08:28:42.925Z,33.17
2022-11-24T08:31:12.511Z,37.50
2022-11-24T08:33:39.770Z,34.23
2022-11-24T08:36:14.929Z,34.83
2022-11-24T08:38:41.543Z,36.97
2022-11-24T08:41:11.355Z,38.07
2022-11-24T08:43:38.069Z,36.07
2022-11-24T08:46:08.013Z,39.83
2022-11-24T08:48:35.297Z,37.30
2022-11-24T08:51:14.440Z,37.77
2022-11-24T08:53:41.840Z,35.23
2022-11-24T08:56:09.765Z,32.77
2022-11-24T08:58:37.835Z,36.40
2022-11-24T09:01:10.649Z,37.10
2022-11-24T09:03:38.306Z,34.73
2022-11-24T09:06:06.279Z,33.63
2022-11-24T09:08:33.422Z,32.97
2022-11-24T09:11:08.768Z,36.97
2022-11-24T09:13:36.136Z,36.73
2022-11-24T09:16:04.606Z,36.83
2022-11-24T09:18:31.167Z,37.37
2022-11-24T09:21:08.944Z,37.37
2022-11-24T09:23:36.315Z,36.30
2022-11-24T09:26:11.716Z,37.30
2022-11-24T09:28:38.311Z,39.03
2022-11-24T09:31:07.889Z,38.00
2022-11-24T09:33:35.813Z,36.37
2022-11-24T09:36:02.852Z,34.10
2022-11-24T09:38:29.443Z,35.63
2022-11-24T09:41:05.666Z,48.27
2022-11-24T09:44:03.732Z,34.93
2022-11-24T09:46:47.423Z,37.80
2022-11-24T09:49:23.991Z,37.57
2022-11-24T09:51:54.887Z,39.00
2022-11-24T09:54:28.083Z,37.27
2022-11-24T09:56:59.644Z,33.90
2022-11-24T09:59:27.418Z,38.67
2022-11-24T10:01:54.331Z,33.77
2022-11-24T10:04:43.996Z,34.13
2022-11-24T10:07:24.992Z,34.70
2022-11-24T10:10:24.609Z,38.23
2022-11-24T10:13:25.036Z,31.30
2022-11-24T10:16:29.617Z,38.27
2022-11-24T10:19:25.643Z,33.43
2022-11-24T10:22:18.371Z,36.90
2022-11-24T10:24:57.575Z,36.13
2022-11-24T10:27:34.485Z,36.37
2022-11-24T10:30:02.031Z,36.63
2022-11-24T10:32:37.597Z,38.10
2022-11-24T10:35:26.094Z,36.97
2022-11-24T10:38:02.045Z,32.40
2022-11-24T10:40:56.519Z,32.10
2022-11-24T10:43:28.034Z,31.10
2022-11-24T10:46:31.409Z,34.53
2022-11-24T10:49:03.757Z,33.83
2022-11-24T10:52:01.223Z,33.67
2022-11-24T10:54:28.144Z,31.30
2022-11-24T10:56:55.312Z,33.67
2022-11-24T10:59:24.626Z,33.53
2022-11-24T11:01:54.982Z,31.70
2022-11-24T11:04:29.650Z,31.90
2022-11-24T11:07:09.663Z,30.23
2022-11-24T11:09:36.557Z,32.33
2022-11-24T11:12:36.218Z,33.37
2022-11-24T11:15:22.076Z,30.87
2022-11-24T11:17:50.449Z,31.10
2022-11-24T11:20:20.283Z,30.13
2022-11-24T11:22:49.261Z,33.27
2022-11-24T11:25:32.273Z,31.87
2022-11-24T11:28:31.114Z,29.27
2022-11-24T11:31:16.533Z,34.03
2022-11-24T11:34:04.679Z,29.33
2022-11-24T11:36:33.420Z,31.60
2022-11-24T11:39:00.096Z,26.90
2022-11-24T11:41:49.728Z,29.83
2022-11-24T11:44:38.428Z,29.93
2022-11-24T11:47:25.438Z,28.57
2022-11-24T11:49:52.876Z,31.10
2022-11-24T11:52:25.210Z,31.10
2022-11-24T11:55:26.811Z,31.93
2022-11-24T11:58:20.276Z,28.57
2022-11-24T12:01:23.601Z,33.40
2022-11-24T12:04:07.759Z,32.57
2022-11-24T12:07:11.725Z,32.80
2022-11-24T12:09:57.200Z,34.47
2022-11-24T12:12:45.171Z,34.83
2022-11-24T12:15:34.564Z,34.43
2022-11-24T12:18:55.836Z,39.00
2022-11-24T12:21:23.052Z,33.57
2022-11-24T12:24:14.248Z,33.60
2022-11-24T12:26:57.675Z,31.63
2022-11-24T12:29:37.472Z,30.03
2022-11-24T12:32:31.814Z,32.77
2022-11-24T12:35:16.440Z,31.07
2022-11-24T12:37:54.971Z,32.03
2022-11-24T12:40:42.162Z,33.13
2022-11-24T12:43:30.810Z,32.67
2022-11-24T12:46:19.509Z,32.60
2022-11-24T12:49:14.800Z,30.87
2022-11-24T12:51:48.748Z,31.47
2022-11-24T12:54:20.325Z,32.07
2022-11-24T12:57:13.389Z,29.23
2022-11-24T12:59:47.897Z,31.43
2022-11-24T13:02:49.452Z,30.83
2022-11-24T13:05:25.361Z,32.30
2022-11-24T13:07:58.891Z,36.13
2022-11-24T13:10:46.953Z,32.63
2022-11-24T13:13:14.187Z,35.83
2022-11-24T13:16:13.110Z,32.10
2022-11-24T13:18:59.839Z,35.50
2022-11-24T13:21:47.181Z,30.07
2022-11-24T13:24:16.931Z,28.47
2022-11-24T13:26:49.921Z,32.43
2022-11-24T13:29:30.320Z,33.20
2022-11-24T13:32:02.697Z,30.83
2022-11-24T13:34:42.645Z,27.83
2022-11-24T13:37:41.122Z,29.47
2022-11-24T13:40:13.976Z,29.47
2022-11-24T13:43:01.340Z,32.00
2022-11-24T13:45:40.713Z,30.20
2022-11-24T13:48:20.071Z,28.43
2022-11-24T13:50:49.987Z,31.53
2022-11-24T13:53:40.610Z,29.73
2022-11-24T13:56:16.447Z,28.47
2022-11-24T13:58:52.179Z,27.13
2022-11-24T14:01:26.666Z,32.27
2022-11-24T14:04:33.974Z,30.07
2022-11-24T14:07:08.201Z,28.33
2022-11-24T14:09:46.939Z,29.70
2022-11-24T14:12:17.975Z,31.80
2022-11-24T14:14:47.296Z,29.13
2022-11-24T14:17:16.737Z,26.93
2022-11-24T14:19:49.008Z,28.73
2022-11-24T14:22:21.784Z,32.60
2022-11-24T14:24:57.326Z,31.40
2022-11-24T14:27:31.330Z,32.40
2022-11-24T14:30:05.245Z,32.50
2022-11-24T14:32:31.821Z,34.67
2022-11-24T14:34:58.612Z,31.03
2022-11-24T14:37:25.357Z,33.20
2022-11-24T14:39:52.068Z,34.10
2022-11-24T14:42:21.991Z,30.40
2022-11-24T14:44:58.575Z,33.33
2022-11-24T14:47:37.002Z,29.93
2022-11-24T14:50:16.387Z,38.07
2022-11-24T14:52:54.150Z,34.53
2022-11-24T14:55:32.502Z,31.17
2022-11-24T14:57:59.916Z,35.57
2022-11-24T15:00:32.550Z,36.63
2022-11-24T15:03:01.912Z,30.37
2022-11-24T15:05:59.450Z,32.77
2022-11-24T15:08:28.651Z,33.03
2022-11-24T15:11:03.049Z,32.43
2022-11-24T15:13:37.014Z,33.87
2022-11-24T15:16:15.861Z,35.00
2022-11-24T15:18:56.611Z,32.43
2022-11-24T15:21:34.548Z,32.67
2022-11-24T15:24:16.050Z,33.37
2022-11-24T15:26:43.629Z,32.97
2022-11-24T15:29:13.353Z,32.83
2022-11-24T15:31:41.323Z,35.23
2022-11-24T15:34:12.133Z,31.17
2022-11-24T15:36:38.698Z,34.43
2022-11-24T15:39:05.315Z,34.57
2022-11-24T15:41:33.582Z,34.93
2022-11-24T15:44:00.253Z,33.57
2022-11-24T15:46:37.609Z,31.73
2022-11-24T15:49:05.413Z,29.87
2022-11-24T15:51:32.115Z,31.43
2022-11-24T15:54:00.951Z,34.73
2022-11-24T15:56:33.632Z,31.80
2022-11-24T15:59:01.425Z,34.47
2022-11-24T16:01:31.499Z,32.50
2022-11-24T16:03:58.384Z,38.07
2022-11-24T16:06:25.575Z,34.17
2022-11-24T16:08:53.467Z,33.00
2022-11-24T16:11:20.487Z,34.73
2022-11-24T16:13:52.289Z,36.40
2022-11-24T16:16:20.616Z,34.17
2022-11-24T16:18:47.291Z,36.33
2022-11-24T16:21:13.928Z,33.23
2022-11-24T16:23:40.698Z,34.37
2022-11-24T16:26:07.589Z,32.87
2022-11-24T16:28:34.637Z,36.27
2022-11-24T16:31:01.390Z,34.60
2022-11-24T16:33:31.525Z,41.83
2022-11-24T16:35:58.673Z,37.10
2022-11-24T16:38:25.536Z,36.13
2022-11-24T16:40:53.433Z,38.20
2022-11-24T16:43:20.393Z,40.30
2022-11-24T16:46:21.175Z,42.47
2022-11-24T16:48:53.201Z,39.13
2022-11-24T16:51:22.916Z,37.90
2022-11-24T16:53:57.700Z,41.77
2022-11-24T16:56:24.501Z,42.87
2022-11-24T16:58:51.131Z,38.40
2022-11-24T17:01:17.893Z,39.70
2022-11-24T17:03:44.476Z,39.23
2022-11-24T17:06:15.651Z,41.23
2022-11-24T17:08:43.392Z,39.87
2022-11-24T17:11:15.525Z,39.83
2022-11-24T17:13:43.155Z,43.43
2022-11-24T17:16:12.666Z,41.53
2022-11-24T17:18:39.967Z,39.27
2022-11-24T17:21:10.194Z,41.30
2022-11-24T17:23:37.490Z,45.33
2022-11-24T17:26:05.805Z,38.83
2022-11-24T17:28:32.456Z,41.03
2022-11-24T17:30:59.079Z,36.53
2022-11-24T17:33:25.617Z,37.47
2022-11-24T17:35:52.206Z,38.13
2022-11-24T17:38:19.070Z,37.97
2022-11-24T17:40:48.768Z,39.27
2022-11-24T17:43:15.445Z,41.97
2022-11-24T17:45:42.353Z,37.43
2022-11-24T17:48:09.006Z,36.97
2022-11-24T17:50:35.759Z,41.00
2022-11-24T17:53:02.294Z,40.80
2022-11-24T17:55:28.882Z,40.20
2022-11-24T17:57:56.162Z,40.00
2022-11-24T18:00:22.980Z,38.23
2022-11-24T18:02:49.714Z,38.67
2022-11-24T18:05:16.426Z,39.30
2022-11-24T18:07:44.064Z,39.83
2022-11-24T18:10:11.296Z,38.73
2022-11-24T18:12:37.871Z,42.23
2022-11-24T18:15:04.902Z,38.53
2022-11-24T18:17:31.561Z,41.27
2022-11-24T18:19:58.165Z,38.10
2022-11-24T18:22:49.932Z,39.57
2022-11-24T18:25:11.504Z,39.57
2022-11-24T18:27:38.069Z,36.27
2022-11-24T18:30:05.780Z,38.00
2022-11-24T18:32:32.805Z,40.40
2022-11-24T18:34:59.399Z,43.07
2022-11-24T18:37:26.031Z,37.57
2022-11-24T18:39:52.604Z,35.63
2022-11-24T18:42:20.797Z,39.60
2022-11-24T18:44:51.123Z,38.10
2022-11-24T18:47:21.405Z,35.70
2022-11-24T18:49:48.005Z,38.43
2022-11-24T18:52:14.753Z,41.03
2022-11-24T18:54:41.374Z,36.07
2022-11-24T18:57:07.964Z,38.97
2022-11-24T18:59:34.540Z,40.70
2022-11-24T19:02:01.146Z,39.30
2022-11-24T19:04:27.847Z,36.57
2022-11-24T19:06:54.430Z,37.17
2022-11-24T19:09:22.704Z,39.33
2022-11-24T19:11:49.390Z,35.77
2022-11-24T19:14:17.725Z,40.53
2022-11-24T19:16:45.219Z,38.70
2022-11-24T19:19:12.477Z,39.87
2022-11-24T19:21:40.818Z,37.10
2022-11-24T19:24:13.202Z,37.83
2022-11-24T19:26:40.089Z,36.57
2022-11-24T19:29:10.730Z,43.90
2022-11-24T19:31:40.759Z,36.80
2022-11-24T19:34:08.183Z,38.17
2022-11-24T19:36:35.297Z,35.70
2022-11-24T19:39:04.611Z,41.37
2022-11-24T19:41:31.920Z,33.77
2022-11-24T19:43:59.545Z,36.27
2022-11-24T19:46:29.343Z,35.10
2022-11-24T19:48:58.253Z,37.63
2022-11-24T19:51:27.995Z,38.70
2022-11-24T19:53:54.586Z,36.60
2022-11-24T19:56:22.971Z,36.73
2022-11-24T19:58:50.590Z,32.47
2022-11-24T20:01:26.086Z,34.80
2022-11-24T20:04:07.332Z,34.60
2022-11-24T20:06:39.373Z,31.33
2022-11-24T20:09:08.441Z,29.90
2022-11-24T20:11:35.616Z,30.50
2022-11-24T20:14:02.429Z,28.80
2022-11-24T20:16:31.894Z,29.70
2022-11-24T20:19:00.916Z,32.57
2022-11-24T20:21:31.150Z,30.40
2022-11-24T20:24:02.990Z,34.03
2022-11-24T20:26:32.096Z,34.67
2022-11-24T20:28:59.946Z,33.90
2022-11-24T20:31:30.206Z,33.10
2022-11-24T20:33:57.486Z,35.20
2022-11-24T20:36:26.666Z,34.73
2022-11-24T20:38:53.985Z,35.53
2022-11-24T20:41:25.728Z,36.60
2022-11-24T20:43:54.141Z,38.93
2022-11-24T20:46:26.709Z,35.87
2022-11-24T20:48:54.376Z,39.67
2022-11-24T20:51:24.128Z,38.27
2022-11-24T20:53:52.233Z,37.87
2022-11-24T20:56:21.319Z,36.93
2022-11-24T20:58:48.376Z,39.97
2022-11-24T21:01:26.514Z,36.03
2022-11-24T21:03:58.670Z,35.97
2022-11-24T21:06:26.227Z,39.13
2022-11-24T21:08:52.917Z,37.43
2022-11-24T21:11:21.168Z,40.97
2022-11-24T21:13:49.193Z,37.97
2022-11-24T21:16:18.728Z,39.50
2022-11-24T21:18:47.123Z,40.27
2022-11-24T21:21:14.613Z,37.57
2022-11-24T21:23:41.198Z,39.63
2022-11-24T21:26:13.113Z,38.17
2022-11-24T21:28:42.212Z,39.13
2022-11-24T21:31:14.839Z,38.10
2022-11-24T21:33:42.483Z,38.97
2022-11-24T21:36:09.400Z,38.33
2022-11-24T21:38:36.180Z,39.60
2022-11-24T21:41:05.692Z,39.63
2022-11-24T21:43:33.213Z,39.43
2022-11-24T21:46:11.724Z,40.53
2022-11-24T21:48:39.241Z,41.00
2022-11-24T21:51:08.199Z,39.37
2022-11-24T21:53:36.354Z,37.07
2022-11-24T21:56:06.326Z,37.23
2022-11-24T21:58:33.449Z,42.60
2022-11-24T22:01:10.438Z,39.63
2022-11-24T22:03:37.244Z,42.97
2022-11-24T22:06:04.383Z,39.73
2022-11-24T22:08:31.394Z,41.70
2022-11-24T22:11:03.963Z,39.77
2022-11-24T22:13:30.942Z,41.17
2022-11-24T22:16:05.852Z,40.07
2022-11-24T22:18:37.821Z,42.97
2022-11-24T22:21:06.373Z,49.13
2022-11-24T22:23:34.591Z,46.00
2022-11-24T22:26:06.440Z,46.57
2022-11-24T22:28:35.153Z,46.17
2022-11-24T22:31:13.248Z,46.00
2022-11-24T22:33:40.251Z,44.27
2022-11-24T22:36:07.494Z,42.47
2022-11-24T22:38:34.798Z,48.30
2022-11-24T22:41:06.753Z,45.17
2022-11-24T22:43:35.150Z,46.53
2022-11-24T22:46:10.880Z,41.63
2022-11-24T22:48:38.488Z,45.47
2022-11-24T22:51:13.627Z,42.57
2022-11-24T22:53:40.923Z,44.43
2022-11-24T22:56:09.775Z,46.90
2022-11-24T22:58:37.312Z,44.33
2022-11-24T23:01:05.937Z,48.63
2022-11-24T23:03:34.350Z,45.67
2022-11-24T23:06:02.115Z,44.57
2022-11-24T23:08:29.687Z,44.50
2022-11-24T23:11:04.373Z,42.53
2022-11-24T23:13:31.274Z,39.13
2022-11-24T23:16:18.053Z,45.07
2022-11-24T23:18:51.040Z,39.13
2022-11-24T23:21:24.897Z,36.97
2022-11-24T23:23:52.209Z,36.57
2022-11-24T23:26:24.843Z,34.83
2022-11-24T23:28:51.553Z,36.40
2022-11-24T23:31:21.378Z,37.80
2022-11-24T23:33:48.154Z,37.60
2022-11-24T23:36:16.533Z,36.63
2022-11-24T23:38:43.576Z,39.03
2022-11-24T23:41:12.965Z,37.90
2022-11-24T23:43:41.116Z,38.70
2022-11-24T23:46:20.404Z,34.87
2022-11-24T23:48:47.947Z,43.13
2022-11-24T23:51:23.301Z,35.50
2022-11-24T23:53:51.392Z,36.37
2022-11-24T23:56:20.761Z,41.73
2022-11-24T23:58:47.502Z,35.60
